Time;durP1;ratioP1;P1;durP2;ratioP2;P2;SDS_P1;SDS_P2;PMS_P1;PMS_P2;Temp;Humidity;BMP_temperature;BMP_pressure;BME280_temperature;BME280_humidity;BME280_pressure;Samples;Min_cycle;Max_cycle;Signal;HPM_P1;HPM_P2
2022/05/09 00:00:17;;;;;;;5.55;2.15;;;;;;;6.39;76.17;101835.02;1924152;73;21019;-64
2022/05/09 00:02:46;;;;;;;3.17;2.02;;;;;;;6.37;76.01;101828.92;1926636;73;21044;-64
2022/05/09 00:05:17;;;;;;;5.78;2.12;;;;;;;6.34;76.03;101826.31;1902580;75;21256;-62
2022/05/09 00:07:47;;;;;;;4.50;1.02;;;;;;;6.32;76.38;101834.61;1927400;73;21052;-62
2022/05/09 00:10:18;;;;;;;3.83;1.30;;;;;;;6.27;76.70;101829.82;1902685;75;21041;-63
2022/05/09 00:12:47;;;;;;;3.27;1.90;;;;;;;6.24;76.68;101832.47;1927329;74;21079;-61
2022/05/09 00:15:17;;;;;;;4.33;2.08;;;;;;;6.19;76.81;101829.41;1898104;75;21008;-63
2022/05/09 00:17:47;;;;;;;2.95;1.50;;;;;;;6.16;77.02;101829.85;1896009;76;21533;-62
2022/05/09 00:20:18;;;;;;;5.62;1.87;;;;;;;6.13;77.11;101827.27;1896208;75;21463;-63
2022/05/09 00:25:41;;;;;;;2.98;1.77;;;;;;;6.10;77.21;101819.42;1726698;82;21154;-64
2022/05/09 00:28:09;;;;;;;3.67;1.32;;;;;;;6.07;77.49;101824.23;1733849;83;21098;-62
2022/05/09 00:30:38;;;;;;;3.50;1.60;;;;;;;6.06;77.23;101824.23;1734040;83;21197;-62
2022/05/09 00:33:07;;;;;;;3.35;1.77;;;;;;;6.05;77.19;101822.07;1752474;81;21070;-66
2022/05/09 00:35:37;;;;;;;5.17;2.08;;;;;;;6.04;77.13;101820.31;1763108;80;21070;-67
2022/05/09 00:38:07;;;;;;;4.00;2.17;;;;;;;6.01;77.38;101815.53;1763157;81;21103;-64
2022/05/09 00:40:37;;;;;;;3.55;1.10;;;;;;;5.98;77.44;101820.34;1763121;81;21085;-64
2022/05/09 00:43:09;;;;;;;3.45;1.37;;;;;;;5.95;77.38;101817.69;1763116;81;21460;-66
2022/05/09 00:45:38;;;;;;;5.85;2.22;;;;;;;5.94;77.45;101817.28;1757024;79;21701;-66
2022/05/09 00:48:08;;;;;;;3.80;1.72;;;;;;;5.91;77.63;101822.50;1763073;81;21110;-66
2022/05/09 00:50:37;;;;;;;2.98;1.80;;;;;;;5.86;77.90;101811.18;1763087;81;21122;-68
2022/05/09 00:53:08;;;;;;;3.72;1.55;;;;;;;5.82;77.93;101822.52;1763178;81;21078;-69
2022/05/09 00:55:49;;;;;;;2.92;1.52;;;;;;;5.76;78.06;101819.04;1763190;81;21082;-69
2022/05/09 00:58:21;;;;;;;3.98;1.42;;;;;;;5.69;78.20;101814.69;1763202;80;21727;-69
2022/05/09 01:00:51;;;;;;;3.90;2.15;;;;;;;5.67;78.10;101819.05;1763099;81;21066;-72
2022/05/09 01:03:23;;;;;;;7.53;2.10;;;;;;;5.64;78.51;101819.05;1763303;81;21082;-72
2022/05/09 01:05:52;;;;;;;3.70;1.50;;;;;;;5.59;78.77;101817.77;1763161;79;21227;-72
2022/05/09 01:08:23;;;;;;;4.25;1.75;;;;;;;5.55;78.84;101819.06;1763233;81;21508;-72
2022/05/09 01:10:55;;;;;;;6.08;1.22;;;;;;;5.55;78.66;101824.28;1762902;80;21144;-70
2022/05/09 01:13:27;;;;;;;3.47;1.70;;;;;;;5.55;78.45;101821.67;1763204;81;21148;-70
2022/05/09 01:15:58;;;;;;;2.22;1.47;;;;;;;5.53;78.55;101820.80;1763295;81;21125;-64
2022/05/09 01:18:27;;;;;;;4.20;1.57;;;;;;;5.50;78.81;101816.91;1763152;81;21094;-67
2022/05/09 01:20:56;;;;;;;5.58;2.80;;;;;;;5.46;78.75;101819.06;1763184;81;21113;-67
2022/05/09 01:23:25;;;;;;;3.55;1.60;;;;;;;5.41;78.95;101823.00;1763206;81;21575;-66
2022/05/09 01:25:54;;;;;;;3.37;1.40;;;;;;;5.38;79.18;101821.24;1786021;79;21145;-67
2022/05/09 01:28:23;;;;;;;4.55;1.98;;;;;;;5.36;79.34;101815.59;1793874;79;21047;-67
2022/05/09 01:30:56;;;;;;;4.35;1.67;;;;;;;5.32;79.43;101825.17;1793953;79;21040;-67
2022/05/09 01:33:30;;;;;;;4.30;2.27;;;;;;;5.31;79.47;101818.64;1794296;80;21063;-66
2022/05/09 01:36:11;;;;;;;3.72;1.95;;;;;;;5.29;79.60;101822.99;1793852;79;21036;-66
2022/05/09 01:38:44;;;;;;;4.00;2.58;;;;;;;5.26;79.78;101821.27;1793696;79;21529;-66
2022/05/09 01:41:13;;;;;;;5.03;2.42;;;;;;;5.22;79.77;101819.53;1793520;79;21118;-68
2022/05/09 01:43:44;;;;;;;8.80;1.95;;;;;;;5.22;79.81;101824.75;1793996;79;21051;-66
2022/05/09 01:46:16;;;;;;;2.42;1.65;;;;;;;5.19;79.83;101828.21;1794005;79;21336;-68
2022/05/09 01:51:33;;;;;;;3.58;1.70;;;;;;;5.14;80.07;101825.16;1793685;79;21502;-63
2022/05/09 01:54:02;;;;;;;4.35;2.47;;;;;;;5.09;80.23;101825.59;1794023;79;21047;-62
2022/05/09 01:56:33;;;;;;;3.52;1.90;;;;;;;5.05;80.13;101815.58;1793896;79;21075;-62
2022/05/09 01:59:04;;;;;;;1.75;1.30;;;;;;;5.03;80.18;101817.31;1794008;80;21114;-66
2022/05/09 02:01:35;;;;;;;3.37;1.45;;;;;;;5.00;80.20;101815.58;1793809;79;21473;-63
2022/05/09 02:04:04;;;;;;;2.47;1.57;;;;;;;5.00;79.88;101818.20;1792794;80;21142;-63
2022/05/09 02:06:34;;;;;;;4.83;1.77;;;;;;;5.01;79.80;101818.61;1793917;80;21442;-64
2022/05/09 02:09:02;;;;;;;3.17;1.55;;;;;;;4.99;79.80;101821.66;1793990;80;21481;-64
2022/05/09 02:11:31;;;;;;;7.17;3.12;;;;;;;4.97;79.77;101827.31;1793982;79;21035;-64
2022/05/09 02:14:00;;;;;;;5.10;2.20;;;;;;;4.95;79.92;101825.14;1793882;80;21051;-64
2022/05/09 02:16:29;;;;;;;9.08;1.85;;;;;;;4.93;80.00;101830.80;1793865;80;21051;-65
2022/05/09 02:18:57;;;;;;;6.28;2.30;;;;;;;4.96;80.09;101828.61;1794001;80;21047;-64
2022/05/09 02:21:26;;;;;;;3.77;2.30;;;;;;;4.98;80.14;101832.98;1793820;80;21011;-62
2022/05/09 02:23:55;;;;;;;4.17;2.15;;;;;;;4.98;80.17;101835.59;1793885;80;21099;-64
2022/05/09 02:26:29;;;;;;;1.95;1.45;;;;;;;4.98;80.20;101835.59;1787627;80;21130;-64
2022/05/09 02:28:54;;;;;;;3.02;1.52;;;;;;;5.01;80.32;101834.72;1785550;80;21103;-66
2022/05/09 02:31:23;;;;;;;6.25;1.60;;;;;;;5.05;80.27;101831.68;1785819;80;21044;-65
2022/05/09 02:33:52;;;;;;;3.00;2.17;;;;;;;5.07;80.21;101841.69;1785783;80;21540;-65
2022/05/09 02:36:21;;;;;;;1.90;1.75;;;;;;;5.09;79.95;101838.23;1785833;80;21059;-65
2022/05/09 02:38:50;;;;;;;5.08;1.67;;;;;;;5.10;79.94;101846.92;1785739;80;21130;-66
2022/05/09 02:41:18;;;;;;;3.60;1.70;;;;;;;5.08;80.09;101836.92;1785827;80;21051;-65
2022/05/09 02:43:47;;;;;;;6.78;1.45;;;;;;;5.09;80.16;101842.55;1785876;80;21201;-63
2022/05/09 02:46:16;;;;;;;5.12;1.82;;;;;;;5.09;80.10;101842.55;1785805;80;21102;-64
2022/05/09 02:48:45;;;;;;;2.10;1.52;;;;;;;5.11;80.27;101842.12;1785916;80;21542;-63
2022/05/09 02:51:14;;;;;;;4.50;2.10;;;;;;;5.13;80.36;101843.02;1785729;80;21141;-63
2022/05/09 02:53:43;;;;;;;7.53;1.17;;;;;;;5.24;80.41;101839.98;1785839;80;21063;-62
2022/05/09 02:56:12;;;;;;;4.42;2.02;;;;;;;5.30;80.30;101845.20;1785750;80;21526;-63
2022/05/09 02:58:41;;;;;;;2.85;1.47;;;;;;;5.38;80.18;101842.58;1785831;80;21056;-63
2022/05/09 03:01:09;;;;;;;5.90;2.50;;;;;;;5.47;80.08;101841.28;1785840;80;21027;-63
2022/05/09 03:06:24;;;;;;;10.90;2.15;;;;;;;5.62;80.04;101841.70;1785945;80;21052;-67
2022/05/09 03:08:53;;;;;;;2.58;1.67;;;;;;;5.70;80.19;101843.89;1785822;80;21107;-68
2022/05/09 03:11:21;;;;;;;2.02;1.62;;;;;;;5.87;80.42;101841.24;1785692;80;21068;-67
2022/05/09 03:13:50;;;;;;;2.47;1.80;;;;;;;6.01;80.62;101845.16;1785827;80;21083;-68
2022/05/09 03:16:19;;;;;;;3.40;0.93;;;;;;;6.23;80.78;101843.34;1785770;80;21517;-67
2022/05/09 03:18:48;;;;;;;8.65;2.62;;;;;;;6.39;80.72;101848.09;1785818;80;21076;-64
2022/05/09 03:21:17;;;;;;;3.22;1.55;;;;;;;6.54;80.53;101844.09;1785623;80;21099;-63
2022/05/09 03:23:46;;;;;;;2.75;1.60;;;;;;;6.68;80.20;101849.72;1785847;80;21038;-63
2022/05/09 03:26:15;;;;;;;4.08;2.27;;;;;;;6.82;79.99;101853.11;1785719;80;21498;-63
2022/05/09 03:28:45;;;;;;;2.22;1.07;;;;;;;7.03;80.01;101850.83;1785768;80;21150;-62
2022/05/09 03:31:14;;;;;;;4.97;2.30;;;;;;;7.20;79.75;101858.56;1785798;80;21122;-63
2022/05/09 03:33:43;;;;;;;2.72;1.52;;;;;;;7.37;79.47;101854.95;1785602;80;21064;-63
2022/05/09 03:36:12;;;;;;;5.85;2.12;;;;;;;7.48;79.02;101855.73;1785870;80;21036;-61
2022/05/09 03:38:40;;;;;;;2.22;1.40;;;;;;;7.62;78.76;101854.31;1785867;80;21134;-63
2022/05/09 03:41:09;;;;;;;5.58;2.52;;;;;;;7.82;78.67;101848.44;1785798;80;21044;-62
2022/05/09 03:43:38;;;;;;;4.22;1.37;;;;;;;8.08;78.72;101852.09;1785743;79;21094;-64
2022/05/09 03:46:06;;;;;;;3.30;1.70;;;;;;;8.26;78.29;101854.07;1785793;80;21044;-62
2022/05/09 03:48:35;;;;;;;4.42;1.60;;;;;;;8.45;77.83;101853.01;1785814;80;21055;-63
2022/05/09 03:51:05;;;;;;;4.22;1.22;;;;;;;8.58;76.85;101848.92;1785680;80;21047;-63
2022/05/09 03:53:34;;;;;;;3.47;1.35;;;;;;;8.65;75.39;101853.17;1785919;80;21117;-63
2022/05/09 03:56:05;;;;;;;2.95;1.57;;;;;;;8.78;74.84;101852.15;1785414;79;21482;-61
2022/05/09 03:58:38;;;;;;;4.33;1.42;;;;;;;9.11;74.75;101845.09;1785355;80;21067;-62
2022/05/09 04:01:12;;;;;;;3.10;1.10;;;;;;;9.32;73.86;101850.03;1785812;80;21082;-63
2022/05/09 04:03:38;;;;;;;1.72;1.50;;;;;;;9.66;73.72;101846.82;1785286;80;21110;-62
2022/05/09 04:06:07;;;;;;;5.80;1.85;;;;;;;9.99;73.00;101852.38;1785789;80;21142;-62
2022/05/09 04:08:36;;;;;;;6.08;1.55;;;;;;;10.30;72.44;101855.73;1785893;80;21463;-61
2022/05/09 04:11:04;;;;;;;3.10;1.50;;;;;;;10.63;72.05;101851.56;1785518;80;21048;-62
2022/05/09 04:13:33;;;;;;;1.47;1.12;;;;;;;10.93;71.32;101849.14;1785806;80;21052;-60
2022/05/09 04:18:51;;;;;;;6.00;1.60;;;;;;;11.80;71.24;101855.36;1785282;80;21617;-61
2022/05/09 04:21:20;;;;;;;6.83;1.57;;;;;;;12.16;70.32;101857.49;1785671;80;21023;-62
2022/05/09 04:23:50;;;;;;;3.75;1.20;;;;;;;12.47;70.03;101855.31;1785827;80;21106;-65
2022/05/09 04:26:19;;;;;;;1.60;1.20;;;;;;;12.75;69.07;101854.48;1786950;80;21067;-64
2022/05/09 04:28:47;;;;;;;3.85;1.47;;;;;;;12.93;68.04;101853.92;1793891;80;21091;-61
2022/05/09 04:31:16;;;;;;;3.33;1.10;;;;;;;13.20;67.64;101853.09;1793843;80;21063;-69
2022/05/09 04:33:47;;;;;;;2.87;1.30;;;;;;;13.48;67.36;101853.96;1793542;80;21118;-64
2022/05/09 04:36:16;;;;;;;2.10;0.78;;;;;;;14.02;67.60;101853.89;1793734;80;21568;-62
2022/05/09 04:38:47;;;;;;;1.92;1.10;;;;;;;14.52;67.53;101851.63;1793802;80;21051;-62
2022/05/09 04:41:17;;;;;;;1.55;1.00;;;;;;;14.94;67.19;101850.45;1794035;80;21040;-63
2022/05/09 04:43:45;;;;;;;1.85;0.90;;;;;;;15.33;66.80;101852.41;1793994;80;21039;-62
2022/05/09 04:46:15;;;;;;;4.50;1.40;;;;;;;15.73;66.42;101839.23;1794137;80;21003;-62
2022/05/09 04:48:46;;;;;;;3.22;1.12;;;;;;;16.13;66.06;101842.36;1793945;79;21466;-62
2022/05/09 04:51:33;;;;;;;8.00;1.77;;;;;;;16.43;65.19;101840.56;1821480;77;21144;-62
2022/05/09 04:54:02;;;;;;;2.30;0.90;;;;;;;16.71;64.72;101840.61;1821553;79;21076;-63
2022/05/09 04:56:31;;;;;;;3.70;1.27;;;;;;;17.11;64.73;101837.40;1821418;78;21052;-63
2022/05/09 04:59:00;;;;;;;3.85;1.27;;;;;;;17.48;64.04;101840.41;1821657;78;21087;-64
2022/05/09 05:01:28;;;;;;;2.60;1.25;;;;;;;17.79;63.45;101840.17;1821669;79;21142;-59
2022/05/09 05:03:57;;;;;;;3.08;1.00;;;;;;;18.02;62.55;101844.34;1801249;79;21550;-61
2022/05/09 05:06:26;;;;;;;2.80;1.12;;;;;;;18.31;61.90;101840.13;1821646;79;21142;-63
2022/05/09 05:08:56;;;;;;;2.15;1.10;;;;;;;18.55;61.95;101841.52;1821786;79;21072;-61
2022/05/09 05:11:24;;;;;;;4.60;1.65;;;;;;;18.98;61.93;101836.47;1821553;79;21064;-61
2022/05/09 05:13:53;;;;;;;4.08;1.35;;;;;;;19.23;60.48;101833.25;1821491;79;21064;-61
2022/05/09 05:16:59;;;;;;;2.30;0.80;;;;;;;19.42;59.39;101833.91;1821541;79;21068;-63
2022/05/09 05:18:52;;;;;;;3.70;1.45;;;;;;;19.73;59.00;101837.44;1818278;79;21020;-64
2022/05/09 05:21:20;;;;;;;3.50;1.20;;;;;;;19.87;58.48;101831.27;1821464;79;21040;-70
2022/05/09 05:23:49;;;;;;;2.55;1.45;;;;;;;20.24;58.69;101835.67;1821567;79;21072;-71
2022/05/09 05:26:18;;;;;;;3.20;1.72;;;;;;;20.64;58.29;101835.87;1821595;79;21447;-60
2022/05/09 05:28:46;;;;;;;3.58;1.35;;;;;;;20.81;57.42;101832.95;1821487;79;21044;-62
2022/05/09 05:31:23;;;;;;;2.80;1.12;;;;;;;21.10;56.51;101828.84;1821617;79;21040;-62
2022/05/09 05:33:49;;;;;;;3.90;1.62;;;;;;;21.27;55.29;101832.22;1821433;78;21428;-62
2022/05/09 05:36:20;;;;;;;5.67;1.67;;;;;;;21.41;53.29;101832.12;1821402;76;21562;-63
2022/05/09 05:38:51;;;;;;;2.72;1.17;;;;;;;21.32;50.99;101827.39;1821491;79;21185;-62
2022/05/09 05:41:27;;;;;;;3.10;1.47;;;;;;;21.44;51.60;101825.72;1821620;79;21087;-62
2022/05/09 05:43:55;;;;;;;2.20;0.95;;;;;;;21.62;50.85;101827.18;1821634;79;21471;-62
2022/05/09 05:46:24;;;;;;;7.40;1.62;;;;;;;21.73;50.93;101821.94;1821588;79;21142;-63
2022/05/09 05:48:53;;;;;;;5.20;1.65;;;;;;;22.05;50.37;101816.63;1821466;79;21248;-63
2022/05/09 05:51:22;;;;;;;4.03;1.52;;;;;;;22.24;49.53;101823.72;1821359;78;21064;-63
2022/05/09 05:53:50;;;;;;;4.35;1.30;;;;;;;22.57;48.94;101823.64;1821635;79;21507;-61
2022/05/09 05:56:19;;;;;;;1.95;0.98;;;;;;;22.95;48.60;101830.72;1821524;79;21173;-61
2022/05/09 05:58:48;;;;;;;3.45;1.40;;;;;;;23.25;48.31;101825.38;1821620;79;21052;-63
2022/05/09 06:01:18;;;;;;;4.97;1.45;;;;;;;23.27;46.26;101823.44;1821545;79;21047;-62
2022/05/09 06:03:47;;;;;;;2.98;1.60;;;;;;;23.44;46.63;101820.34;1821431;79;21080;-62
2022/05/09 06:06:17;;;;;;;1.95;1.17;;;;;;;23.68;45.92;101822.08;1821532;79;21150;-62
2022/05/09 06:08:46;;;;;;;2.62;1.02;;;;;;;23.70;45.29;101821.01;1821552;78;21099;-62
2022/05/09 06:11:15;;;;;;;2.62;1.00;;;;;;;23.78;44.27;101810.99;1821764;79;21541;-61
2022/05/09 06:13:43;;;;;;;5.85;1.30;;;;;;;23.78;43.66;101813.68;1821389;79;21052;-62
2022/05/09 06:16:12;;;;;;;5.35;1.40;;;;;;;24.05;44.07;101811.16;1821589;79;21142;-63
2022/05/09 06:18:41;;;;;;;4.42;1.20;;;;;;;24.48;44.06;101811.77;1821528;79;21181;-64
2022/05/09 06:21:10;;;;;;;4.78;1.40;;;;;;;24.80;43.74;101805.09;1821550;79;21455;-62
2022/05/09 06:23:39;;;;;;;1.92;1.00;;;;;;;25.13;43.24;101808.66;1821540;79;21060;-61
2022/05/09 06:26:07;;;;;;;3.25;1.40;;;;;;;25.29;42.54;101804.72;1821557;78;21113;-61
2022/05/09 06:28:36;;;;;;;2.42;1.25;;;;;;;25.33;41.90;101804.31;1821488;79;21560;-61
2022/05/09 06:31:05;;;;;;;3.45;1.27;;;;;;;25.47;41.67;101800.92;1821478;79;21122;-62
2022/05/09 06:33:35;;;;;;;5.30;1.10;;;;;;;25.37;40.69;101801.71;1821499;79;21073;-63
2022/05/09 06:36:04;;;;;;;3.08;0.93;;;;;;;25.56;40.76;101806.87;1821613;79;21044;-62
2022/05/09 06:38:33;;;;;;;1.57;1.17;;;;;;;25.69;40.20;101803.47;1821621;79;21044;-63
2022/05/09 06:41:02;;;;;;;4.15;0.82;;;;;;;25.97;39.56;101802.47;1821777;79;21146;-63
2022/05/09 06:43:31;;;;;;;2.55;1.00;;;;;;;26.12;39.08;101800.27;1821514;79;21064;-62
2022/05/09 06:46:01;;;;;;;2.40;0.90;;;;;;;26.29;38.44;101802.30;1821643;79;21557;-61
2022/05/09 06:48:29;;;;;;;6.70;1.00;;;;;;;26.47;38.05;101799.80;1821577;79;21116;-68
2022/05/09 06:50:58;;;;;;;3.72;1.32;;;;;;;26.05;35.90;101793.70;1823279;78;21087;-63
2022/05/09 06:53:51;;;;;;;2.10;0.95;;;;;;;25.76;35.79;101790.32;1830532;78;21055;-67
2022/05/09 06:56:17;;;;;;;1.30;1.15;;;;;;;25.81;36.05;101789.43;1829919;77;21074;-65
2022/05/09 06:58:45;;;;;;;2.72;1.10;;;;;;;25.64;34.88;101790.91;1830529;78;21060;-65
2022/05/09 07:01:19;;;;;;;4.78;1.22;;;;;;;25.48;35.30;101795.41;1830549;78;21012;-64
2022/05/09 07:03:48;;;;;;;1.42;0.98;;;;;;;25.76;35.30;101795.71;1830618;78;21126;-64
2022/05/09 07:06:17;;;;;;;2.55;0.98;;;;;;;26.14;35.51;101793.73;1830303;78;21047;-63
2022/05/09 07:08:46;;;;;;;3.33;1.30;;;;;;;26.39;35.38;101786.13;1830449;78;21067;-63
2022/05/09 07:11:15;;;;;;;0.80;0.65;;;;;;;26.66;34.93;101783.31;1830384;78;21138;-65
2022/05/09 07:14:04;;;;;;;1.15;0.80;;;;;;;26.75;34.32;101786.52;1833024;78;21135;-66
2022/05/09 07:16:32;;;;;;;4.03;0.80;;;;;;;26.49;33.38;101782.97;1890624;76;21026;-66
2022/05/09 07:19:01;;;;;;;5.20;1.25;;;;;;;26.57;32.99;101783.11;1891284;76;21093;-64
2022/05/09 07:21:31;;;;;;;1.75;1.07;;;;;;;26.84;33.15;101778.92;1891324;76;21038;-62
2022/05/09 07:24:00;;;;;;;5.65;1.00;;;;;;;26.74;32.85;101776.70;1888985;76;21476;-62
2022/05/09 07:26:29;;;;;;;2.85;0.90;;;;;;;26.70;32.45;101770.72;1891424;76;21002;-61
2022/05/09 07:28:58;;;;;;;2.30;0.93;;;;;;;26.56;31.81;101766.56;1891305;76;21121;-62
2022/05/09 07:31:27;;;;;;;1.22;0.80;;;;;;;26.42;31.87;101764.25;1891184;76;21073;-67
2022/05/09 07:33:57;;;;;;;3.08;1.00;;;;;;;26.25;31.62;101759.54;1890638;76;21547;-68
2022/05/09 07:36:25;;;;;;;2.30;1.00;;;;;;;26.33;31.94;101765.09;1890483;76;21150;-66
2022/05/09 07:38:54;;;;;;;2.65;1.20;;;;;;;26.71;32.18;101760.80;1891319;76;21018;-65
2022/05/09 07:41:23;;;;;;;2.22;0.93;;;;;;;27.24;32.13;101757.65;1876450;76;21111;-64
2022/05/09 07:43:52;;;;;;;1.45;0.80;;;;;;;27.70;32.17;101754.66;1888080;76;21526;-64
2022/05/09 07:46:23;;;;;;;2.40;1.05;;;;;;;28.06;31.25;101753.45;1891277;76;21132;-66
2022/05/09 07:48:52;;;;;;;6.03;1.32;;;;;;;28.29;31.23;101750.33;1891361;76;21127;-66
2022/05/09 07:51:21;;;;;;;3.30;1.02;;;;;;;28.46;31.28;101749.52;1880918;76;21460;-68
2022/05/09 07:53:50;;;;;;;3.15;0.90;;;;;;;28.63;30.85;101748.37;1860143;76;21483;-66
2022/05/09 07:56:19;;;;;;;2.67;0.93;;;;;;;28.91;30.87;101742.86;1859234;77;21135;-67
2022/05/09 07:58:48;;;;;;;1.67;1.10;;;;;;;29.06;30.60;101742.64;1859261;77;21045;-67
2022/05/09 08:01:17;;;;;;;1.72;0.80;;;;;;;29.14;30.24;101745.95;1861384;76;21162;-65
2022/05/09 08:03:45;;;;;;;1.20;0.80;;;;;;;29.29;30.01;101745.75;1859300;77;21049;-65
2022/05/09 08:06:14;;;;;;;1.35;0.90;;;;;;;29.41;30.31;101745.81;1859280;77;21115;-66
2022/05/09 08:08:43;;;;;;;2.95;0.90;;;;;;;29.57;29.74;101738.29;1859216;77;21049;-67
2022/05/09 08:11:12;;;;;;;5.60;1.10;;;;;;;29.94;29.45;101742.58;1868116;76;21596;-65
2022/05/09 08:13:42;;;;;;;3.35;1.05;;;;;;;30.22;29.00;101739.10;1891234;76;21473;-65
2022/05/09 08:16:11;;;;;;;5.53;1.10;;;;;;;30.37;28.96;101733.91;1889082;76;21503;-66
2022/05/09 08:18:40;;;;;;;4.42;1.00;;;;;;;30.51;28.56;101734.30;1887830;76;21145;-65
2022/05/09 08:21:10;;;;;;;1.12;0.72;;;;;;;30.29;26.73;101732.52;1887131;76;21450;-65
2022/05/09 08:23:39;;;;;;;7.28;1.22;;;;;;;30.21;27.17;101725.68;1887765;76;21125;-66
2022/05/09 08:26:08;;;;;;;3.15;1.02;;;;;;;30.12;26.61;101732.11;1887969;76;21526;-64
2022/05/09 08:28:36;;;;;;;1.65;1.00;;;;;;;29.92;26.68;101733.75;1877995;76;21562;-66
2022/05/09 08:31:05;;;;;;;2.47;1.12;;;;;;;29.76;26.74;101725.52;1878688;76;21464;-65
2022/05/09 08:33:34;;;;;;;3.55;1.60;;;;;;;29.72;27.05;101722.77;1886221;76;21057;-65
2022/05/09 08:36:07;;;;;;;1.77;0.85;;;;;;;29.52;26.53;101720.27;1857059;75;21046;-65
2022/05/09 08:38:33;;;;;;;6.15;1.17;;;;;;;29.44;26.74;101718.88;1920501;75;21088;-65
2022/05/09 08:41:16;;;;;;;1.77;1.20;;;;;;;29.64;26.75;101712.21;1919416;74;21022;-66
2022/05/09 08:44:01;;;;;;;5.00;0.90;;;;;;;30.00;26.51;101715.27;1895909;75;21014;-65
2022/05/09 08:46:49;;;;;;;1.27;0.85;;;;;;;30.27;26.67;101708.74;1861084;76;21014;-65
2022/05/09 08:49:30;;;;;;;1.52;0.90;;;;;;;30.49;26.49;101714.56;1866625;76;21050;-65
2022/05/09 08:52:11;;;;;;;10.53;2.90;;;;;;;30.12;25.86;101710.38;1887390;76;21149;-67
2022/05/09 08:54:41;;;;;;;1.47;0.75;;;;;;;29.91;26.22;101707.59;1887736;76;21030;-67
2022/05/09 08:57:16;;;;;;;1.57;0.90;;;;;;;30.02;25.88;101707.30;1888043;76;21014;-69
2022/05/09 08:59:56;;;;;;;3.08;1.10;;;;;;;29.92;25.85;101712.03;1886850;76;21022;-68
2022/05/09 09:02:36;;;;;;;6.47;2.75;;;;;;;30.06;26.10;101705.62;1885061;76;21084;-67
2022/05/09 09:05:06;;;;;;;4.12;1.50;;;;;;;30.12;25.84;101698.16;1887860;76;21034;-68
2022/05/09 09:07:54;;;;;;;3.70;2.05;;;;;;;30.07;25.44;101690.52;1887947;76;21077;-67
2022/05/09 09:10:34;;;;;;;2.47;1.00;;;;;;;30.02;25.73;101695.59;1864425;76;21522;-68
2022/05/09 09:13:26;;;;;;;1.35;1.00;;;;;;;30.14;25.69;101694.80;1859727;76;21021;-68
2022/05/09 09:16:19;;;;;;;2.22;0.95;;;;;;;30.34;25.49;101696.23;1857181;77;21192;-69
2022/05/09 09:19:17;;;;;;;1.67;1.57;;;;;;;30.53;25.32;101686.06;1859501;77;21034;-67
2022/05/09 09:21:55;;;;;;;3.50;1.00;;;;;;;30.64;25.37;101687.09;1860067;76;21073;-69
2022/05/09 09:24:39;;;;;;;2.45;1.10;;;;;;;30.62;25.13;101683.70;1859562;77;21520;-69
2022/05/09 09:27:28;;;;;;;0.98;0.90;;;;;;;30.71;24.94;101689.47;1859362;77;21092;-68
2022/05/09 09:30:00;;;;;;;7.10;3.58;;;;;;;30.57;24.88;101683.34;1862417;76;21072;-67
2022/05/09 09:32:28;;;;;;;1.98;0.90;;;;;;;30.49;24.92;101686.03;1888884;76;21103;-68
2022/05/09 09:35:06;;;;;;;1.65;1.05;;;;;;;30.44;24.68;101692.51;1891433;76;21143;-67
2022/05/09 09:37:38;;;;;;;6.10;1.00;;;;;;;30.37;24.82;101678.22;1891346;76;21021;-67
2022/05/09 09:40:08;;;;;;;1.02;0.70;;;;;;;30.28;25.06;101687.33;1889899;76;21535;-68
2022/05/09 09:42:39;;;;;;;1.92;1.42;;;;;;;29.99;24.89;101675.55;1891384;76;21077;-67
2022/05/09 09:45:19;;;;;;;3.90;1.10;;;;;;;29.52;24.65;101680.09;1891283;75;21557;-67
2022/05/09 09:47:51;;;;;;;1.17;0.68;;;;;;;29.29;25.11;101677.06;1891288;76;21107;-68
2022/05/09 09:50:25;;;;;;;3.80;0.72;;;;;;;29.11;24.76;101672.53;1890303;76;21061;-68
2022/05/09 09:53:00;;;;;;;3.47;1.32;;;;;;;29.02;25.08;101668.06;1891296;76;21081;-68
2022/05/09 09:55:38;;;;;;;1.95;1.12;;;;;;;29.07;24.60;101664.37;1891363;76;21025;-68
2022/05/09 09:58:25;;;;;;;1.60;1.07;;;;;;;28.52;23.03;101665.94;1891347;76;21006;-69
2022/05/09 10:01:09;;;;;;;1.57;0.80;;;;;;;28.36;24.30;101662.56;1889088;76;21029;-68
2022/05/09 10:03:41;;;;;;;3.67;1.60;;;;;;;28.56;24.82;101665.48;1891229;76;21041;-67
2022/05/09 10:06:18;;;;;;;1.75;0.72;;;;;;;28.79;24.99;101655.03;1891403;75;21095;-69
2022/05/09 10:08:49;;;;;;;2.47;1.02;;;;;;;29.00;25.14;101657.37;1890904;76;21108;-67
2022/05/09 10:11:24;;;;;;;2.55;1.10;;;;;;;28.75;25.22;101648.20;1889552;76;21084;-68
2022/05/09 10:13:58;;;;;;;3.35;1.00;;;;;;;28.46;25.46;101654.71;1859254;77;21104;-68
2022/05/09 10:16:41;;;;;;;1.35;0.78;;;;;;;27.65;25.95;101651.43;1859161;76;21100;-68
2022/05/09 10:19:03;;;;;;;1.65;0.80;;;;;;;27.43;26.57;101658.58;1857513;77;21029;-68
2022/05/09 10:24:57;;;;;;;2.25;0.78;;;;;;;27.73;27.03;101650.16;1859401;77;21041;-68
2022/05/09 10:27:25;;;;;;;2.87;1.00;;;;;;;27.59;26.35;101650.66;1859342;76;21009;-67
2022/05/09 10:29:57;;;;;;;2.20;0.98;;;;;;;27.42;26.75;101651.45;1859325;77;21041;-68
2022/05/09 10:32:35;;;;;;;1.75;1.00;;;;;;;27.31;26.76;101642.52;1859305;77;21034;-69
2022/05/09 10:35:06;;;;;;;1.52;0.70;;;;;;;27.26;26.93;101644.83;1858826;77;21045;-69
2022/05/09 10:37:50;;;;;;;1.32;0.90;;;;;;;27.28;27.10;101646.88;1875293;76;21006;-68
2022/05/09 10:40:25;;;;;;;3.90;1.30;;;;;;;27.34;27.20;101647.64;1891321;76;21022;-67
2022/05/09 10:42:57;;;;;;;1.87;0.72;;;;;;;27.46;27.24;101642.03;1891600;76;21037;-67
2022/05/09 10:45:29;;;;;;;6.78;1.10;;;;;;;27.34;27.32;101645.44;1890546;74;21054;-68
2022/05/09 10:48:01;;;;;;;2.10;1.25;;;;;;;27.02;26.81;101639.89;1889071;76;21569;-67
2022/05/09 10:50:32;;;;;;;2.70;0.82;;;;;;;26.92;27.27;101642.59;1891444;76;21019;-67
2022/05/09 10:53:22;;;;;;;1.27;0.70;;;;;;;26.83;26.98;101636.70;1891362;76;21021;-68
2022/05/09 10:56:13;;;;;;;2.65;1.10;;;;;;;26.45;26.18;101631.67;1891220;76;21623;-68
2022/05/09 10:58:48;;;;;;;1.57;0.60;;;;;;;26.02;26.18;101638.29;1889082;76;21488;-66
2022/05/09 11:01:31;;;;;;;3.20;1.15;;;;;;;25.79;26.61;101632.26;1891256;76;21033;-67
2022/05/09 11:04:01;;;;;;;1.52;1.07;;;;;;;25.45;27.18;101633.89;1891358;76;21104;-68
2022/05/09 11:06:55;;;;;;;2.72;1.10;;;;;;;25.10;27.62;101626.17;1891253;76;21741;-67
2022/05/09 11:09:29;;;;;;;4.22;0.85;;;;;;;24.62;27.75;101629.78;1882260;76;21127;-67
2022/05/09 11:12:19;;;;;;;1.82;0.90;;;;;;;24.34;28.23;101637.08;1891331;76;21539;-68
2022/05/09 11:14:58;;;;;;;3.22;1.52;;;;;;;24.01;28.67;101628.12;1891205;76;21098;-69
2022/05/09 11:17:36;;;;;;;2.58;1.07;;;;;;;23.62;29.13;101631.70;1890868;76;21076;-67
2022/05/09 11:20:37;;;;;;;3.25;1.00;;;;;;;23.59;29.31;101633.27;1888873;76;21551;-68
2022/05/09 11:23:14;;;;;;;0.85;0.80;;;;;;;23.71;29.41;101624.23;1885620;76;21127;-69
2022/05/09 11:26:09;;;;;;;2.85;0.85;;;;;;;23.74;29.44;101628.03;1858300;76;21038;-67
2022/05/09 11:28:53;;;;;;;1.98;1.00;;;;;;;23.76;29.54;101623.37;1859333;77;21120;-68
2022/05/09 11:31:43;;;;;;;4.53;1.20;;;;;;;23.77;28.99;101612.13;1859402;77;21538;-68
2022/05/09 11:34:31;;;;;;;4.12;0.80;;;;;;;23.75;29.23;101620.30;1858660;76;21041;-67
2022/05/09 11:37:21;;;;;;;0.50;0.50;;;;;;;23.77;29.41;101627.76;1857201;76;21100;-67
2022/05/09 11:40:11;;;;;;;1.67;0.90;;;;;;;23.86;29.46;101623.01;1891207;76;21033;-68
2022/05/09 11:46:00;;;;;;;1.42;0.75;;;;;;;23.71;29.32;101622.89;1891227;76;21571;-69
2022/05/09 11:48:47;;;;;;;1.12;0.80;;;;;;;23.65;29.30;101617.52;1869210;76;21026;-67
2022/05/09 11:51:24;;;;;;;0.60;0.50;;;;;;;23.62;29.38;101624.97;1891568;76;21476;-68
2022/05/09 11:53:59;;;;;;;1.25;0.80;;;;;;;23.60;29.38;101614.84;1891247;76;21103;-68
2022/05/09 11:56:30;;;;;;;4.22;0.82;;;;;;;23.58;29.45;101619.48;1890928;76;21174;-67
2022/05/09 11:59:01;;;;;;;4.17;0.95;;;;;;;23.58;29.47;101620.83;1891312;76;21065;-67
2022/05/09 12:01:53;;;;;;;1.55;0.62;;;;;;;23.60;29.50;101617.52;1891416;76;21026;-68
2022/05/09 12:04:34;;;;;;;1.65;0.70;;;;;;;23.58;29.52;101616.80;1853398;76;21087;-67
2022/05/09 12:07:23;;;;;;;0.85;0.72;;;;;;;23.45;29.06;101615.08;1891278;76;21030;-69